Time;durP1;ratioP1;P1;durP2;ratioP2;P2;SDS_P1;SDS_P2;PMS_P1;PMS_P2;Temp;Humidity;BMP_temperature;BMP_pressure;BME280_temperature;BME280_humidity;BME280_pressure;Samples;Min_cycle;Max_cycle;Signal;HPM_P1;HPM_P2
2022/01/25 00:08:54;;;;;;;59.03;27.70;;;;;;;;;;5111437;28;20097;-80
2022/01/25 00:25:11;;;;;;;51.47;24.40;;;;;;;;;;5111187;28;20439;-79
2022/01/25 00:27:48;;;;;;;60.05;26.38;;;;;;;;;;5092795;28;20125;-80
2022/01/25 00:30:32;;;;;;;56.08;26.02;;;;;;;;;;5091621;28;20121;-80
2022/01/25 00:32:58;;;;;;;57.25;24.58;;;;;;;;;;5104139;28;20045;-79
2022/01/25 00:35:25;;;;;;;55.30;25.17;;;;;;;;;;5092518;28;20508;-80
2022/01/25 00:37:51;;;;;;;59.13;26.38;;;;;;;;;;5089168;28;20474;-79
2022/01/25 00:40:18;;;;;;;53.53;26.35;;;;;;;;;;5105701;28;20157;-80
2022/01/25 00:42:44;;;;;;;55.13;25.50;;;;;;;;;;5092756;28;20037;-79
2022/01/25 00:45:12;;;;;;;54.47;24.92;;;;;;;;;;5101173;28;20048;-79
2022/01/25 00:47:41;;;;;;;54.65;25.52;;;;;;;;;;5104178;27;20056;-79
2022/01/25 00:50:14;;;;;;;55.38;25.13;;;;;;;;;;5114677;28;20051;-80
2022/01/25 00:55:10;;;;;;;54.70;25.75;;;;;;;;;;5111699;28;20063;-79
2022/01/25 00:57:36;;;;;;;57.83;26.10;;;;;;;;;;5096846;28;20052;-80
2022/01/25 01:00:04;;;;;;;57.95;26.50;;;;;;;;;;5114730;28;20044;-79
2022/01/25 01:02:30;;;;;;;56.33;25.02;;;;;;;;;;5096257;28;20534;-80
2022/01/25 01:04:57;;;;;;;55.78;24.98;;;;;;;;;;5095231;28;20139;-80
2022/01/25 01:07:24;;;;;;;55.03;26.30;;;;;;;;;;5097036;28;20086;-79
2022/01/25 01:09:52;;;;;;;55.78;24.80;;;;;;;;;;5115285;27;20056;-80
2022/01/25 01:13:26;;;;;;;57.65;26.55;;;;;;;;;;5097132;28;20060;-80
2022/01/25 01:31:48;;;;;;;56.92;25.55;;;;;;;;;;5113266;28;20126;-80
2022/01/25 01:37:13;;;;;;;55.92;25.67;;;;;;;;;;5109483;28;20040;-80
2022/01/25 01:47:38;;;;;;;58.00;24.65;;;;;;;;;;5108371;27;20056;-80
2022/01/25 01:50:15;;;;;;;55.90;24.48;;;;;;;;;;5094896;28;20371;-80
2022/01/25 01:52:41;;;;;;;55.03;24.50;;;;;;;;;;5094159;28;21236;-80
2022/01/25 01:55:08;;;;;;;60.90;26.38;;;;;;;;;;5109685;28;20067;-80
2022/01/25 01:57:35;;;;;;;57.40;25.63;;;;;;;;;;5094693;28;20052;-79
2022/01/25 02:00:02;;;;;;;58.75;26.48;;;;;;;;;;5095745;28;20498;-80
2022/01/25 02:02:29;;;;;;;59.65;25.73;;;;;;;;;;5093873;28;20170;-80
2022/01/25 02:04:55;;;;;;;55.70;25.92;;;;;;;;;;5094552;28;20048;-79
2022/01/25 02:07:21;;;;;;;57.88;25.88;;;;;;;;;;5094615;28;20086;-79
2022/01/25 02:09:48;;;;;;;58.28;25.85;;;;;;;;;;5094843;28;20164;-79
2022/01/25 02:12:14;;;;;;;57.05;25.33;;;;;;;;;;5094595;28;20941;-80
2022/01/25 02:14:41;;;;;;;56.97;25.73;;;;;;;;;;5096238;28;20055;-80
2022/01/25 02:17:37;;;;;;;62.88;27.45;;;;;;;;;;5112411;28;20044;-80
2022/01/25 02:22:54;;;;;;;58.72;26.20;;;;;;;;;;5111696;27;20134;-79
2022/01/25 02:25:21;;;;;;;61.55;26.38;;;;;;;;;;5112355;28;20070;-79
2022/01/25 02:27:48;;;;;;;60.85;26.20;;;;;;;;;;5088504;28;20056;-79
2022/01/25 02:30:14;;;;;;;56.50;24.55;;;;;;;;;;5111718;28;22607;-80
2022/01/25 02:32:40;;;;;;;60.53;26.50;;;;;;;;;;5113986;27;20894;-80
2022/01/25 02:35:07;;;;;;;56.92;26.38;;;;;;;;;;5094316;28;20048;-80
2022/01/25 02:37:34;;;;;;;60.83;25.98;;;;;;;;;;5094549;28;20055;-80
2022/01/25 02:40:02;;;;;;;57.67;25.52;;;;;;;;;;5111937;28;20032;-79
2022/01/25 02:42:28;;;;;;;61.95;25.45;;;;;;;;;;5105621;28;20110;-79
2022/01/25 02:44:55;;;;;;;59.22;25.95;;;;;;;;;;5087029;28;20052;-79
2022/01/25 02:48:29;;;;;;;60.35;25.88;;;;;;;;;;5093445;28;20056;-79
2022/01/25 02:50:11;;;;;;;60.13;26.02;;;;;;;;;;5111874;28;20087;-79
2022/01/25 02:52:37;;;;;;;63.40;26.08;;;;;;;;;;5094688;28;20522;-79
2022/01/25 02:55:04;;;;;;;61.25;25.98;;;;;;;;;;5101662;28;20056;-80
2022/01/25 02:57:30;;;;;;;60.30;25.90;;;;;;;;;;5111941;28;20048;-79
2022/01/25 03:00:00;;;;;;;60.80;25.55;;;;;;;;;;5112679;28;20082;-79
2022/01/25 03:02:26;;;;;;;61.97;25.88;;;;;;;;;;5086035;28;20553;-79
2022/01/25 03:04:53;;;;;;;63.03;27.65;;;;;;;;;;5112152;28;20102;-80
2022/01/25 03:07:19;;;;;;;66.38;27.10;;;;;;;;;;5093545;28;20052;-80
2022/01/25 03:09:46;;;;;;;60.63;25.77;;;;;;;;;;5094741;28;20507;-79
2022/01/25 03:12:17;;;;;;;61.75;26.27;;;;;;;;;;5093913;28;20054;-79
2022/01/25 03:15:02;;;;;;;64.47;26.30;;;;;;;;;;5087040;28;20087;-80
2022/01/25 03:17:31;;;;;;;65.45;27.02;;;;;;;;;;5111265;28;20048;-79
2022/01/25 03:20:07;;;;;;;60.92;25.95;;;;;;;;;;5110145;28;20560;-79
2022/01/25 03:23:21;;;;;;;62.45;25.88;;;;;;;;;;5111626;27;20098;-79
2022/01/25 03:25:21;;;;;;;61.00;26.58;;;;;;;;;;5089739;28;20067;-80
2022/01/25 03:27:47;;;;;;;66.40;27.52;;;;;;;;;;5111707;28;20083;-80
2022/01/25 03:30:13;;;;;;;62.47;27.02;;;;;;;;;;5091513;28;20419;-80
2022/01/25 03:32:41;;;;;;;62.50;26.33;;;;;;;;;;5110461;28;20553;-79
2022/01/25 03:35:07;;;;;;;65.43;27.83;;;;;;;;;;5088864;28;20088;-80
2022/01/25 03:37:34;;;;;;;66.18;27.98;;;;;;;;;;5109355;27;20052;-80
2022/01/25 03:40:00;;;;;;;62.65;26.48;;;;;;;;;;5090422;28;20091;-79
2022/01/25 03:42:26;;;;;;;59.97;26.75;;;;;;;;;;5090927;28;20048;-79
2022/01/25 03:44:53;;;;;;;62.95;26.48;;;;;;;;;;5113687;27;20083;-79
2022/01/25 03:47:30;;;;;;;63.80;27.55;;;;;;;;;;5111432;28;20194;-79
2022/01/25 03:49:56;;;;;;;62.85;26.55;;;;;;;;;;5094329;28;20052;-79
2022/01/25 03:52:29;;;;;;;61.72;26.05;;;;;;;;;;5102784;28;20101;-79
2022/01/25 03:54:55;;;;;;;62.40;26.15;;;;;;;;;;5085243;27;20085;-79
2022/01/25 03:57:22;;;;;;;64.63;27.77;;;;;;;;;;5092730;28;20048;-79
2022/01/25 03:59:48;;;;;;;64.15;27.35;;;;;;;;;;5093633;28;20052;-79
2022/01/25 04:02:15;;;;;;;62.47;26.80;;;;;;;;;;5108920;28;20144;-79
2022/01/25 04:04:41;;;;;;;61.65;26.00;;;;;;;;;;5111085;28;20060;-80
2022/01/25 04:07:09;;;;;;;70.75;27.92;;;;;;;;;;5109738;28;20052;-80
2022/01/25 04:09:35;;;;;;;67.47;27.70;;;;;;;;;;5087569;28;20106;-80
2022/01/25 04:12:02;;;;;;;67.60;28.08;;;;;;;;;;5105844;28;20060;-80
2022/01/25 04:14:30;;;;;;;66.07;27.92;;;;;;;;;;5110274;28;20058;-79
2022/01/25 04:17:04;;;;;;;68.60;27.55;;;;;;;;;;5090698;28;20068;-80
2022/01/25 04:19:36;;;;;;;69.05;29.35;;;;;;;;;;5090083;28;20048;-80
2022/01/25 04:25:01;;;;;;;62.72;26.58;;;;;;;;;;5108812;27;20412;-80
2022/01/25 04:27:28;;;;;;;63.78;26.98;;;;;;;;;;5085367;28;20052;-80
2022/01/25 04:29:55;;;;;;;62.80;27.48;;;;;;;;;;5106054;28;20071;-80
2022/01/25 04:32:33;;;;;;;63.42;27.58;;;;;;;;;;5087714;28;20114;-80
2022/01/25 04:35:25;;;;;;;63.17;26.92;;;;;;;;;;5081721;28;20106;-80
2022/01/25 04:54:10;;;;;;;66.18;27.73;;;;;;;;;;5104065;28;20126;-79
2022/01/25 04:56:52;;;;;;;65.38;27.80;;;;;;;;;;5086794;28;20524;-80
2022/01/25 04:59:36;;;;;;;67.47;27.50;;;;;;;;;;5101690;28;20644;-79
2022/01/25 05:02:12;;;;;;;65.10;27.73;;;;;;;;;;5084248;28;20080;-80
2022/01/25 05:04:46;;;;;;;63.50;26.75;;;;;;;;;;5110473;27;20150;-80
2022/01/25 05:07:30;;;;;;;64.25;27.30;;;;;;;;;;5093167;28;20494;-80
2022/01/25 05:09:58;;;;;;;67.70;27.35;;;;;;;;;;5112739;28;20044;-80
2022/01/25 05:18:36;;;;;;;63.45;25.67;;;;;;;;;;5053945;28;20075;-80
2022/01/25 05:23:48;;;;;;;68.00;27.40;;;;;;;;;;5106242;27;20056;-80
2022/01/25 05:26:14;;;;;;;67.13;27.40;;;;;;;;;;5111774;28;20056;-80
2022/01/25 05:28:40;;;;;;;65.95;28.60;;;;;;;;;;5119358;27;20058;-80
2022/01/25 05:31:07;;;;;;;65.10;29.00;;;;;;;;;;5097624;28;20060;-80
2022/01/25 05:33:33;;;;;;;75.10;29.63;;;;;;;;;;5098133;28;20415;-80
2022/01/25 05:36:00;;;;;;;66.82;29.40;;;;;;;;;;5111259;27;20044;-80
2022/01/25 05:38:26;;;;;;;68.45;28.38;;;;;;;;;;5096260;28;20048;-78
2022/01/25 05:41:01;;;;;;;66.78;27.80;;;;;;;;;;5090722;28;20756;-78
2022/01/25 05:46:16;;;;;;;68.93;29.10;;;;;;;;;;5110311;28;20052;-77
2022/01/25 05:48:44;;;;;;;68.63;28.20;;;;;;;;;;5109897;28;20083;-77
2022/01/25 05:51:10;;;;;;;64.85;28.35;;;;;;;;;;5090217;28;20131;-77
2022/01/25 05:53:37;;;;;;;69.75;29.63;;;;;;;;;;5107667;28;20148;-77
2022/01/25 05:56:04;;;;;;;76.82;32.80;;;;;;;;;;5091226;28;20125;-77
2022/01/25 05:58:30;;;;;;;66.85;28.80;;;;;;;;;;5109137;28;20056;-77
2022/01/25 06:00:56;;;;;;;73.95;30.40;;;;;;;;;;5109668;28;20106;-79
2022/01/25 06:03:23;;;;;;;75.50;30.73;;;;;;;;;;5094997;28;20114;-79
2022/01/25 06:05:49;;;;;;;70.18;30.63;;;;;;;;;;5094212;27;20044;-79
2022/01/25 06:08:16;;;;;;;73.68;30.33;;;;;;;;;;5110169;28;20433;-79
2022/01/25 06:10:42;;;;;;;73.22;31.17;;;;;;;;;;5105626;28;20078;-79
2022/01/25 06:13:08;;;;;;;76.57;30.27;;;;;;;;;;5112086;28;20080;-79
2022/01/25 06:15:35;;;;;;;76.03;31.08;;;;;;;;;;5094029;27;20083;-79
2022/01/25 06:18:01;;;;;;;74.25;29.55;;;;;;;;;;5111519;28;20059;-79
2022/01/25 06:20:28;;;;;;;78.05;31.75;;;;;;;;;;5111936;28;20036;-79
2022/01/25 06:22:55;;;;;;;81.30;33.03;;;;;;;;;;5088240;28;20061;-79
2022/01/25 06:25:21;;;;;;;76.82;31.05;;;;;;;;;;5106506;28;20187;-79
2022/01/25 06:27:48;;;;;;;75.40;31.25;;;;;;;;;;5094360;27;20080;-79
2022/01/25 06:30:16;;;;;;;78.63;32.03;;;;;;;;;;5111455;28;20135;-79
2022/01/25 06:32:44;;;;;;;77.88;32.13;;;;;;;;;;5110962;28;20059;-79
2022/01/25 06:35:11;;;;;;;83.43;32.67;;;;;;;;;;5106009;28;20082;-79
2022/01/25 06:37:37;;;;;;;78.07;31.20;;;;;;;;;;5093659;28;20052;-79
2022/01/25 06:40:05;;;;;;;74.80;31.85;;;;;;;;;;5111707;27;20083;-79
2022/01/25 06:42:31;;;;;;;74.63;29.95;;;;;;;;;;5089357;28;20052;-79
2022/01/25 06:45:02;;;;;;;77.88;30.63;;;;;;;;;;5091953;28;20910;-79
2022/01/25 06:47:28;;;;;;;76.68;31.48;;;;;;;;;;5110620;27;20055;-79
2022/01/25 06:49:55;;;;;;;77.28;31.23;;;;;;;;;;5106739;27;20070;-79
2022/01/25 06:52:21;;;;;;;74.85;32.10;;;;;;;;;;5113954;27;20095;-79
2022/01/25 06:54:48;;;;;;;76.50;30.27;;;;;;;;;;5092534;28;20541;-79
2022/01/25 06:57:14;;;;;;;79.47;32.22;;;;;;;;;;5085064;28;20601;-79
2022/01/25 06:59:41;;;;;;;78.72;31.50;;;;;;;;;;5110854;28;20129;-79
2022/01/25 07:02:08;;;;;;;80.35;32.22;;;;;;;;;;5104746;28;20143;-79
2022/01/25 07:04:36;;;;;;;82.60;32.50;;;;;;;;;;5093865;28;20414;-79
2022/01/25 07:07:02;;;;;;;82.35;32.90;;;;;;;;;;5111725;28;20056;-79
2022/01/25 07:09:29;;;;;;;75.85;30.10;;;;;;;;;;5093601;28;20056;-79
2022/01/25 07:11:55;;;;;;;80.63;32.00;;;;;;;;;;5111942;28;20059;-79
2022/01/25 07:14:21;;;;;;;76.65;30.52;;;;;;;;;;5091360;28;20055;-79
2022/01/25 07:16:48;;;;;;;78.15;31.88;;;;;;;;;;5103123;27;20099;-79
2022/01/25 07:19:15;;;;;;;77.63;31.95;;;;;;;;;;5091337;28;20048;-79
2022/01/25 07:21:41;;;;;;;80.82;31.23;;;;;;;;;;5110353;28;20129;-79
2022/01/25 07:24:07;;;;;;;74.50;30.60;;;;;;;;;;5092710;28;20048;-79
2022/01/25 07:26:34;;;;;;;78.20;31.42;;;;;;;;;;5090555;28;20056;-77
2022/01/25 07:29:00;;;;;;;85.03;34.05;;;;;;;;;;5108137;28;20056;-77
2022/01/25 07:31:26;;;;;;;82.60;32.95;;;;;;;;;;5091415;28;20079;-76
2022/01/25 07:33:54;;;;;;;75.47;30.75;;;;;;;;;;5108731;28;20139;-76
2022/01/25 07:36:26;;;;;;;78.07;30.98;;;;;;;;;;5107867;27;20461;-76
2022/01/25 07:38:54;;;;;;;78.97;30.42;;;;;;;;;;5107948;28;20169;-77
2022/01/25 07:41:29;;;;;;;75.25;30.73;;;;;;;;;;5091757;28;20604;-77
2022/01/25 07:43:58;;;;;;;84.50;32.97;;;;;;;;;;5087791;28;20399;-76
2022/01/25 07:46:25;;;;;;;75.88;30.83;;;;;;;;;;5089867;28;20052;-76
2022/01/25 07:49:04;;;;;;;81.15;32.15;;;;;;;;;;5090898;28;20058;-76
2022/01/25 07:51:35;;;;;;;76.00;30.38;;;;;;;;;;5073444;28;20045;-76
2022/01/25 07:54:02;;;;;;;80.38;30.42;;;;;;;;;;5106871;27;20055;-76
2022/01/25 07:56:28;;;;;;;78.88;31.17;;;;;;;;;;5087039;28;20133;-76
2022/01/25 07:58:55;;;;;;;81.07;29.85;;;;;;;;;;5121053;27;20051;-76
2022/01/25 08:01:22;;;;;;;78.47;30.80;;;;;;;;;;5107397;27;20419;-76
2022/01/25 08:03:49;;;;;;;80.32;31.48;;;;;;;;;;5084310;28;20044;-76
2022/01/25 08:06:21;;;;;;;77.05;31.10;;;;;;;;;;5125464;27;20052;-76
2022/01/25 08:09:00;;;;;;;83.80;31.33;;;;;;;;;;5087947;27;20080;-76
2022/01/25 08:11:31;;;;;;;84.13;30.25;;;;;;;;;;5092142;28;20529;-76
2022/01/25 08:14:19;;;;;;;79.95;32.58;;;;;;;;;;5102405;28;20579;-77
2022/01/25 08:16:50;;;;;;;82.10;31.25;;;;;;;;;;5090968;28;20053;-76
2022/01/25 08:19:17;;;;;;;78.40;30.38;;;;;;;;;;5087494;28;20059;-76
2022/01/25 08:21:46;;;;;;;75.63;30.33;;;;;;;;;;5099325;27;20127;-77
2022/01/25 08:24:15;;;;;;;79.63;30.70;;;;;;;;;;5112100;27;20536;-77
2022/01/25 08:26:44;;;;;;;79.47;29.97;;;;;;;;;;5089465;28;20529;-77
2022/01/25 08:29:22;;;;;;;74.93;29.85;;;;;;;;;;5094238;28;20066;-77
2022/01/25 08:31:51;;;;;;;82.00;30.98;;;;;;;;;;5108791;27;20569;-76
2022/01/25 08:34:17;;;;;;;80.45;32.38;;;;;;;;;;5085600;27;20052;-77
2022/01/25 08:36:48;;;;;;;79.97;30.95;;;;;;;;;;5086810;28;20082;-77
2022/01/25 08:39:15;;;;;;;79.70;31.00;;;;;;;;;;5091941;28;20094;-77
2022/01/25 08:41:44;;;;;;;79.25;30.35;;;;;;;;;;5102456;28;20053;-77
2022/01/25 08:44:25;;;;;;;80.70;30.70;;;;;;;;;;5042218;28;20566;-76
2022/01/25 08:46:51;;;;;;;78.28;30.45;;;;;;;;;;5062549;28;20052;-76
2022/01/25 08:49:30;;;;;;;76.40;28.63;;;;;;;;;;5046719;28;20601;-76
2022/01/25 08:52:02;;;;;;;81.15;30.85;;;;;;;;;;5046467;28;20049;-76
2022/01/25 08:54:29;;;;;;;75.72;29.83;;;;;;;;;;5062652;28;20064;-76
2022/01/25 08:57:03;;;;;;;79.55;29.15;;;;;;;;;;5045807;28;20508;-77
2022/01/25 08:59:40;;;;;;;75.82;29.27;;;;;;;;;;5039566;28;20451;-77
2022/01/25 09:02:07;;;;;;;78.43;29.20;;;;;;;;;;5046828;28;20255;-77
2022/01/25 09:04:33;;;;;;;81.50;30.05;;;;;;;;;;5049789;28;20095;-76
2022/01/25 09:07:03;;;;;;;85.68;30.83;;;;;;;;;;5067528;28;20573;-76
2022/01/25 09:09:30;;;;;;;85.18;31.50;;;;;;;;;;5049808;28;20068;-77
2022/01/25 09:11:57;;;;;;;79.25;29.55;;;;;;;;;;5050153;28;20107;-77
2022/01/25 09:14:23;;;;;;;79.97;30.45;;;;;;;;;;5061290;28;20520;-77
2022/01/25 09:16:53;;;;;;;78.53;29.75;;;;;;;;;;5041076;28;20535;-77
2022/01/25 09:19:19;;;;;;;83.45;30.98;;;;;;;;;;5049699;28;21016;-77
2022/01/25 09:21:46;;;;;;;83.85;30.52;;;;;;;;;;5065818;27;20122;-77
2022/01/25 09:24:12;;;;;;;82.30;30.13;;;;;;;;;;5089722;28;20083;-75
2022/01/25 09:26:38;;;;;;;86.70;31.83;;;;;;;;;;5092115;28;20060;-75
2022/01/25 09:29:05;;;;;;;77.95;28.85;;;;;;;;;;5109002;28;20178;-75
2022/01/25 09:31:31;;;;;;;76.00;29.13;;;;;;;;;;5104618;28;20134;-75
2022/01/25 09:33:58;;;;;;;75.30;28.63;;;;;;;;;;5109358;28;20058;-75
2022/01/25 09:36:25;;;;;;;77.95;29.13;;;;;;;;;;5109116;28;20079;-75
2022/01/25 09:38:52;;;;;;;77.30;29.50;;;;;;;;;;5106989;28;20048;-75
2022/01/25 09:41:19;;;;;;;78.60;28.45;;;;;;;;;;5110106;28;20052;-75
2022/01/25 09:43:45;;;;;;;75.97;29.88;;;;;;;;;;5110575;28;20056;-75
2022/01/25 09:46:11;;;;;;;71.22;28.17;;;;;;;;;;5092184;28;20167;-75
2022/01/25 09:48:38;;;;;;;79.55;30.10;;;;;;;;;;5109359;28;20524;-75
2022/01/25 09:51:07;;;;;;;74.07;28.65;;;;;;;;;;5089568;28;20098;-75
2022/01/25 09:53:33;;;;;;;72.30;29.27;;;;;;;;;;5106487;28;20059;-75
2022/01/25 09:56:00;;;;;;;81.82;29.63;;;;;;;;;;5109023;27;20556;-75
2022/01/25 09:58:26;;;;;;;77.57;28.88;;;;;;;;;;5106045;27;20519;-75
2022/01/25 10:00:56;;;;;;;79.57;29.15;;;;;;;;;;5095748;28;20052;-75
2022/01/25 10:03:31;;;;;;;81.88;29.02;;;;;;;;;;5108210;27;20076;-75
2022/01/25 10:06:01;;;;;;;82.82;30.05;;;;;;;;;;5099287;27;20055;-75
2022/01/25 10:08:35;;;;;;;75.32;27.92;;;;;;;;;;5101410;27;20056;-75
2022/01/25 10:11:06;;;;;;;76.65;28.65;;;;;;;;;;5109619;27;20048;-75
2022/01/25 10:13:34;;;;;;;76.38;29.45;;;;;;;;;;5091307;28;20048;-76
2022/01/25 10:16:00;;;;;;;73.72;26.58;;;;;;;;;;5105041;27;20116;-76
2022/01/25 10:18:37;;;;;;;75.20;28.15;;;;;;;;;;5088557;28;20194;-75
2022/01/25 10:21:09;;;;;;;74.78;28.65;;;;;;;;;;5109270;28;20052;-76
2022/01/25 10:23:35;;;;;;;74.20;27.92;;;;;;;;;;5109330;27;20056;-76
2022/01/25 10:26:02;;;;;;;81.18;28.95;;;;;;;;;;5108914;28;20102;-76
2022/01/25 10:28:30;;;;;;;79.78;29.42;;;;;;;;;;5105936;27;20285;-75
2022/01/25 10:30:58;;;;;;;74.63;28.02;;;;;;;;;;5109407;28;20576;-75
2022/01/25 10:33:38;;;;;;;74.75;27.70;;;;;;;;;;5091727;28;20500;-76
2022/01/25 10:36:24;;;;;;;75.38;28.98;;;;;;;;;;5088416;28;20098;-76
2022/01/25 10:38:52;;;;;;;82.40;29.23;;;;;;;;;;5070563;27;20076;-75
2022/01/25 10:41:20;;;;;;;72.10;27.40;;;;;;;;;;5098093;28;20110;-75
2022/01/25 10:43:47;;;;;;;78.93;30.83;;;;;;;;;;5097481;28;20060;-75
2022/01/25 10:46:17;;;;;;;72.93;27.50;;;;;;;;;;5071245;28;20543;-79
2022/01/25 10:48:45;;;;;;;75.30;27.20;;;;;;;;;;5069968;28;20064;-76
2022/01/25 10:51:14;;;;;;;76.57;29.02;;;;;;;;;;5094602;27;20106;-75
2022/01/25 10:53:41;;;;;;;76.82;28.40;;;;;;;;;;5108975;28;20052;-75
2022/01/25 10:56:07;;;;;;;78.90;28.90;;;;;;;;;;5082151;28;20056;-76
2022/01/25 10:58:38;;;;;;;70.30;27.67;;;;;;;;;;5099428;27;20074;-76
2022/01/25 11:01:04;;;;;;;73.43;27.30;;;;;;;;;;5106941;27;20137;-76
2022/01/25 11:03:35;;;;;;;76.53;28.50;;;;;;;;;;5107667;27;20052;-76
2022/01/25 11:06:08;;;;;;;75.88;27.75;;;;;;;;;;5101203;27;20578;-75
2022/01/25 11:08:36;;;;;;;77.65;29.80;;;;;;;;;;5090467;28;20052;-75
2022/01/25 11:11:03;;;;;;;78.15;27.75;;;;;;;;;;5096638;27;20431;-75
2022/01/25 11:13:39;;;;;;;75.60;28.27;;;;;;;;;;5089889;28;20512;-76
2022/01/25 11:16:08;;;;;;;74.28;27.60;;;;;;;;;;5102381;27;20114;-76
2022/01/25 11:18:35;;;;;;;84.75;29.08;;;;;;;;;;5082528;28;20097;-75
2022/01/25 11:21:03;;;;;;;74.50;27.50;;;;;;;;;;5109428;27;20133;-76
2022/01/25 11:23:34;;;;;;;71.55;27.00;;;;;;;;;;5094451;28;20549;-76
2022/01/25 11:26:02;;;;;;;73.88;28.63;;;;;;;;;;5099711;27;20056;-76
2022/01/25 11:28:32;;;;;;;74.93;27.25;;;;;;;;;;5108313;27;20059;-75
2022/01/25 11:31:02;;;;;;;74.53;28.45;;;;;;;;;;5109059;27;20048;-75
2022/01/25 11:33:30;;;;;;;70.78;27.35;;;;;;;;;;5100123;27;20102;-75
2022/01/25 11:35:56;;;;;;;68.93;25.30;;;;;;;;;;5109263;27;20537;-75
2022/01/25 11:38:30;;;;;;;73.22;27.30;;;;;;;;;;5108913;27;20048;-76
2022/01/25 11:40:57;;;;;;;75.53;27.15;;;;;;;;;;5110365;27;20209;-75
2022/01/25 11:43:23;;;;;;;69.25;26.75;;;;;;;;;;5090367;28;20114;-75
2022/01/25 11:45:50;;;;;;;71.93;27.45;;;;;;;;;;5106248;27;20455;-75
2022/01/25 11:48:23;;;;;;;78.45;28.67;;;;;;;;;;5099038;27;20091;-76
2022/01/25 11:50:50;;;;;;;75.45;29.33;;;;;;;;;;5086305;27;20106;-75
2022/01/25 11:53:18;;;;;;;76.20;27.70;;;;;;;;;;5095356;28;20052;-76
2022/01/25 11:55:51;;;;;;;71.32;27.77;;;;;;;;;;5104570;27;20110;-76
2022/01/25 11:58:23;;;;;;;69.65;26.50;;;;;;;;;;5106243;27;20572;-76
2022/01/25 12:00:51;;;;;;;79.63;27.40;;;;;;;;;;5103279;27;20555;-75
2022/01/25 12:03:23;;;;;;;70.40;26.63;;;;;;;;;;5089353;28;20082;-76
2022/01/25 12:05:59;;;;;;;69.57;26.63;;;;;;;;;;5083999;27;20075;-75
2022/01/25 12:08:51;;;;;;;79.05;27.60;;;;;;;;;;5102265;27;20492;-75
2022/01/25 12:11:23;;;;;;;71.55;27.30;;;;;;;;;;5093838;28;20060;-75
2022/01/25 12:14:09;;;;;;;76.00;27.42;;;;;;;;;;5100239;27;20110;-76
2022/01/25 12:16:43;;;;;;;75.80;26.80;;;;;;;;;;5103415;27;20580;-76
2022/01/25 12:19:11;;;;;;;74.35;26.88;;;;;;;;;;5108626;27;20506;-75
2022/01/25 12:21:48;;;;;;;69.25;26.42;;;;;;;;;;5108847;27;20204;-75
2022/01/25 12:24:14;;;;;;;73.65;26.85;;;;;;;;;;5103540;27;20105;-76
2022/01/25 12:27:02;;;;;;;72.15;27.73;;;;;;;;;;5108608;27;20102;-75
2022/01/25 12:29:29;;;;;;;72.95;27.83;;;;;;;;;;5100658;27;20105;-76
2022/01/25 12:32:15;;;;;;;73.95;27.27;;;;;;;;;;5108141;27;20060;-76
2022/01/25 12:35:00;;;;;;;70.40;25.48;;;;;;;;;;5106389;27;20044;-76
2022/01/25 12:37:41;;;;;;;71.38;25.92;;;;;;;;;;5087573;28;20583;-76
2022/01/25 12:40:26;;;;;;;71.05;26.80;;;;;;;;;;5104466;27;20246;-76
2022/01/25 12:42:54;;;;;;;72.38;26.27;;;;;;;;;;5108450;27;20067;-75
2022/01/25 12:45:21;;;;;;;70.80;26.48;;;;;;;;;;5107948;27;20166;-76
2022/01/25 12:48:01;;;;;;;72.43;25.65;;;;;;;;;;5108500;27;20048;-75
2022/01/25 12:50:28;;;;;;;74.47;27.65;;;;;;;;;;5104058;27;20495;-75
2022/01/25 12:52:55;;;;;;;73.05;27.30;;;;;;;;;;5106313;27;20064;-76
2022/01/25 12:55:24;;;;;;;73.32;27.70;;;;;;;;;;5086597;28;20584;-76
2022/01/25 12:57:52;;;;;;;71.65;27.10;;;;;;;;;;5097892;27;20056;-76
2022/01/25 13:00:19;;;;;;;71.90;26.73;;;;;;;;;;5107717;27;20056;-75
2022/01/25 13:02:46;;;;;;;75.35;27.70;;;;;;;;;;5090155;27;20126;-76
2022/01/25 13:05:16;;;;;;;72.57;26.55;;;;;;;;;;5083527;27;20110;-76
2022/01/25 13:07:43;;;;;;;69.65;26.13;;;;;;;;;;5101660;27;20523;-75
2022/01/25 13:10:12;;;;;;;74.97;27.27;;;;;;;;;;5104110;27;20052;-76
2022/01/25 13:12:56;;;;;;;73.45;27.08;;;;;;;;;;5108692;27;20056;-75
2022/01/25 13:15:39;;;;;;;70.45;26.73;;;;;;;;;;5102071;27;20110;-75
2022/01/25 13:18:09;;;;;;;75.22;25.70;;;;;;;;;;5100373;27;20131;-75
2022/01/25 13:20:35;;;;;;;68.32;26.70;;;;;;;;;;5106207;27;20133;-75
2022/01/25 13:23:01;;;;;;;73.35;27.33;;;;;;;;;;5110792;27;20686;-75
2022/01/25 13:25:34;;;;;;;73.35;26.77;;;;;;;;;;5108720;27;20109;-76
2022/01/25 13:28:02;;;;;;;72.80;27.42;;;;;;;;;;5089068;27;20078;-75
2022/01/25 13:30:44;;;;;;;77.07;27.13;;;;;;;;;;5103305;27;20863;-75
2022/01/25 13:33:17;;;;;;;72.93;27.98;;;;;;;;;;5086223;27;20055;-75
2022/01/25 13:35:49;;;;;;;71.95;26.48;;;;;;;;;;5106430;27;20049;-75
2022/01/25 13:38:23;;;;;;;72.88;28.20;;;;;;;;;;5106104;27;20113;-75
2022/01/25 13:40:59;;;;;;;74.22;26.67;;;;;;;;;;5103720;27;20500;-75
2022/01/25 13:46:12;;;;;;;70.13;26.65;;;;;;;;;;5106194;27;20127;-75
2022/01/25 13:48:39;;;;;;;73.82;26.55;;;;;;;;;;5099266;27;20499;-75
2022/01/25 13:51:13;;;;;;;73.10;26.55;;;;;;;;;;5112618;27;20108;-76
2022/01/25 13:53:40;;;;;;;66.28;25.33;;;;;;;;;;5093885;27;20055;-75
2022/01/25 13:56:08;;;;;;;73.85;27.17;;;;;;;;;;5109744;27;20110;-74
2022/01/25 13:58:36;;;;;;;72.20;26.52;;;;;;;;;;5099494;28;20063;-74
2022/01/25 14:01:08;;;;;;;72.13;26.85;;;;;;;;;;5110822;27;20405;-75
2022/01/25 14:03:35;;;;;;;69.75;25.00;;;;;;;;;;5102441;27;20127;-75
2022/01/25 14:06:18;;;;;;;72.10;27.25;;;;;;;;;;5106856;27;20108;-74
2022/01/25 14:08:44;;;;;;;68.90;26.38;;;;;;;;;;5110703;27;20125;-76
2022/01/25 14:21:40;;;;;;;71.25;26.25;;;;;;;;;;5109523;27;20513;-75
2022/01/25 14:23:22;;;;;;;76.25;26.42;;;;;;;;;;5101823;27;20220;-75
2022/01/25 14:25:30;;;;;;;65.53;25.58;;;;;;;;;;5098854;27;20052;-75
2022/01/25 14:27:58;;;;;;;75.30;25.77;;;;;;;;;;5109047;27;20063;-74
2022/01/25 14:30:26;;;;;;;80.00;27.65;;;;;;;;;;5108703;27;20477;-75
2022/01/25 14:33:04;;;;;;;70.97;25.45;;;;;;;;;;5107578;27;20056;-75
2022/01/25 14:35:31;;;;;;;73.05;26.27;;;;;;;;;;5107006;27;20571;-75
2022/01/25 14:38:03;;;;;;;68.22;26.55;;;;;;;;;;5112978;27;20117;-75
2022/01/25 14:40:30;;;;;;;72.43;27.63;;;;;;;;;;5108498;27;20056;-77
2022/01/25 14:42:56;;;;;;;71.18;26.65;;;;;;;;;;5103816;27;20106;-75
2022/01/25 14:45:23;;;;;;;70.13;27.00;;;;;;;;;;5102828;27;20052;-75
2022/01/25 14:47:51;;;;;;;74.03;26.48;;;;;;;;;;5090034;27;20147;-75
2022/01/25 14:50:22;;;;;;;74.38;26.45;;;;;;;;;;5110061;27;20079;-75
2022/01/25 14:53:05;;;;;;;76.18;27.40;;;;;;;;;;5108231;27;20063;-76
2022/01/25 14:55:33;;;;;;;69.07;25.35;;;;;;;;;;5109563;27;20476;-74
2022/01/25 14:58:10;;;;;;;69.95;25.98;;;;;;;;;;5111284;27;20106;-75
2022/01/25 15:00:50;;;;;;;73.63;27.45;;;;;;;;;;5089028;27;20056;-75
2022/01/25 15:03:17;;;;;;;69.88;26.63;;;;;;;;;;5108880;27;20091;-76
2022/01/25 15:05:45;;;;;;;73.28;26.65;;;;;;;;;;5108079;27;20048;-75
2022/01/25 15:08:12;;;;;;;69.85;25.33;;;;;;;;;;5108958;27;20105;-75
2022/01/25 15:10:43;;;;;;;73.22;28.23;;;;;;;;;;5107875;27;20110;-75
2022/01/25 15:13:11;;;;;;;69.53;25.52;;;;;;;;;;5101736;27;20519;-75
2022/01/25 15:15:55;;;;;;;69.85;25.48;;;;;;;;;;5115985;27;20106;-75
2022/01/25 15:18:29;;;;;;;69.13;27.65;;;;;;;;;;5106914;27;20055;-75
2022/01/25 15:20:57;;;;;;;70.95;26.08;;;;;;;;;;5108146;27;20129;-75
2022/01/25 15:23:24;;;;;;;66.43;24.95;;;;;;;;;;5090742;27;20051;-74
2022/01/25 15:25:55;;;;;;;67.50;24.77;;;;;;;;;;5108586;27;20138;-75
2022/01/25 15:28:22;;;;;;;67.22;24.92;;;;;;;;;;5108306;27;20056;-74
2022/01/25 15:30:49;;;;;;;69.68;26.50;;;;;;;;;;5115501;27;20151;-75
2022/01/25 15:33:16;;;;;;;73.68;27.08;;;;;;;;;;5107524;27;20126;-74
2022/01/25 15:35:43;;;;;;;73.15;27.65;;;;;;;;;;5090229;27;20523;-75
2022/01/25 15:38:09;;;;;;;68.18;27.02;;;;;;;;;;5109952;27;20143;-75
2022/01/25 15:40:35;;;;;;;67.03;26.23;;;;;;;;;;5109575;27;20044;-75
2022/01/25 15:43:02;;;;;;;69.63;25.95;;;;;;;;;;5091009;28;20079;-74
2022/01/25 15:45:41;;;;;;;74.38;26.83;;;;;;;;;;5090735;28;20526;-74
2022/01/25 15:48:08;;;;;;;70.50;25.42;;;;;;;;;;5089522;27;20073;-75
2022/01/25 15:50:34;;;;;;;70.10;26.15;;;;;;;;;;5093620;28;20060;-74
2022/01/25 15:53:01;;;;;;;69.28;26.05;;;;;;;;;;5101525;27;20056;-75
2022/01/25 15:55:27;;;;;;;71.65;27.45;;;;;;;;;;5090662;28;20056;-74
2022/01/25 15:57:53;;;;;;;65.38;24.80;;;;;;;;;;5106249;27;20502;-74
2022/01/25 16:00:20;;;;;;;75.30;26.63;;;;;;;;;;5107639;27;20056;-76
2022/01/25 16:02:46;;;;;;;68.97;26.33;;;;;;;;;;5108599;27;20048;-75
2022/01/25 16:05:14;;;;;;;69.63;27.27;;;;;;;;;;5083946;27;20075;-74
2022/01/25 16:07:40;;;;;;;68.60;26.00;;;;;;;;;;5113063;27;20113;-75